Terminal Aerodrome Forecast
Issued by NWS

Current Version | Previous Version | Graphics & Text | Print | Product List | Glossary On
Versions: 1 2 3 4 5 6 7 8 9 10 11 12 13
000
FTUS41 KRNK 202334 AAA
TAFLWB
TAF AMD
KLWB 202334Z 2100/2124 00000KT P6SM SKC
     FM210800 00000KT 1/4SM FG OVC001
     FM211300 00000KT 3SM BR BKN250
     FM211500 VRB03KT P6SM FEW250
     FM211800 21004KT P6SM BKN250=

USA.gov is the U.S. government's official web portal to all federal, state and local government web resources and services.